sensor_id;sensor_type;location;lat;lon;timestamp;P1;durP1;ratioP1;P2;durP2;ratioP2
76094;SDS011;64821;13.710;100.604;2024-03-08T00:00:07;15.70;;;11.23;;
76094;SDS011;64821;13.710;100.604;2024-03-08T00:01:12;15.70;;;12.02;;
76094;SDS011;64821;13.710;100.604;2024-03-08T00:02:16;14.73;;;11.47;;
76094;SDS011;64821;13.710;100.604;2024-03-08T00:03:20;15.07;;;11.65;;
76094;SDS011;64821;13.710;100.604;2024-03-08T00:04:26;15.60;;;12.45;;
76094;SDS011;64821;13.710;100.604;2024-03-08T00:05:30;16.38;;;12.75;;
76094;SDS011;64821;13.710;100.604;2024-03-08T00:06:35;16.40;;;11.82;;
76094;SDS011;64821;13.710;100.604;2024-03-08T00:07:39;14.93;;;11.73;;
76094;SDS011;64821;13.710;100.604;2024-03-08T00:08:44;15.07;;;11.80;;
76094;SDS011;64821;13.710;100.604;2024-03-08T00:09:49;14.88;;;11.32;;
76094;SDS011;64821;13.710;100.604;2024-03-08T00:10:53;15.40;;;11.88;;
76094;SDS011;64821;13.710;100.604;2024-03-08T00:11:57;16.50;;;12.43;;
76094;SDS011;64821;13.710;100.604;2024-03-08T00:13:01;13.43;;;10.93;;
76094;SDS011;64821;13.710;100.604;2024-03-08T00:14:06;13.82;;;11.30;;
76094;SDS011;64821;13.710;100.604;2024-03-08T00:15:10;15.95;;;11.38;;
76094;SDS011;64821;13.710;100.604;2024-03-08T00:16:14;14.68;;;11.40;;
76094;SDS011;64821;13.710;100.604;2024-03-08T00:17:18;14.95;;;12.05;;
76094;SDS011;64821;13.710;100.604;2024-03-08T00:18:23;14.37;;;11.60;;
76094;SDS011;64821;13.710;100.604;2024-03-08T00:19:28;15.18;;;11.82;;
76094;SDS011;64821;13.710;100.604;2024-03-08T00:20:33;14.85;;;11.18;;
76094;SDS011;64821;13.710;100.604;2024-03-08T00:21:37;14.80;;;11.48;;
76094;SDS011;64821;13.710;100.604;2024-03-08T00:22:41;15.43;;;11.50;;
76094;SDS011;64821;13.710;100.604;2024-03-08T00:23:45;14.83;;;11.47;;
76094;SDS011;64821;13.710;100.604;2024-03-08T00:24:49;14.85;;;11.75;;
76094;SDS011;64821;13.710;100.604;2024-03-08T00:25:53;15.18;;;11.52;;
76094;SDS011;64821;13.710;100.604;2024-03-08T00:26:57;16.73;;;12.48;;
76094;SDS011;64821;13.710;100.604;2024-03-08T00:28:02;14.70;;;11.38;;
76094;SDS011;64821;13.710;100.604;2024-03-08T00:29:06;17.00;;;12.60;;
76094;SDS011;64821;13.710;100.604;2024-03-08T00:30:10;16.23;;;11.98;;
76094;SDS011;64821;13.710;100.604;2024-03-08T00:31:15;14.93;;;11.10;;
76094;SDS011;64821;13.710;100.604;2024-03-08T00:32:19;15.55;;;11.63;;
76094;SDS011;64821;13.710;100.604;2024-03-08T00:33:23;15.63;;;11.27;;
76094;SDS011;64821;13.710;100.604;2024-03-08T00:34:29;17.43;;;12.17;;
76094;SDS011;64821;13.710;100.604;2024-03-08T00:35:34;14.20;;;11.13;;
76094;SDS011;64821;13.710;100.604;2024-03-08T00:36:38;15.70;;;11.85;;
76094;SDS011;64821;13.710;100.604;2024-03-08T00:37:42;15.20;;;11.90;;
76094;SDS011;64821;13.710;100.604;2024-03-08T00:38:46;15.90;;;11.70;;
76094;SDS011;64821;13.710;100.604;2024-03-08T00:39:50;15.93;;;11.53;;
76094;SDS011;64821;13.710;100.604;2024-03-08T00:40:55;15.82;;;12.18;;
76094;SDS011;64821;13.710;100.604;2024-03-08T00:41:59;16.35;;;12.18;;
76094;SDS011;64821;13.710;100.604;2024-03-08T00:43:03;17.05;;;12.40;;
76094;SDS011;64821;13.710;100.604;2024-03-08T00:44:08;16.27;;;11.20;;
76094;SDS011;64821;13.710;100.604;2024-03-08T00:45:14;14.77;;;11.70;;
76094;SDS011;64821;13.710;100.604;2024-03-08T00:46:18;15.65;;;12.13;;
76094;SDS011;64821;13.710;100.604;2024-03-08T00:47:22;16.13;;;12.50;;
76094;SDS011;64821;13.710;100.604;2024-03-08T00:48:27;15.07;;;10.70;;
76094;SDS011;64821;13.710;100.604;2024-03-08T00:49:33;17.42;;;12.02;;
76094;SDS011;64821;13.710;100.604;2024-03-08T00:50:37;15.70;;;11.20;;
76094;SDS011;64821;13.710;100.604;2024-03-08T00:51:41;14.25;;;11.30;;
76094;SDS011;64821;13.710;100.604;2024-03-08T00:52:45;15.43;;;11.82;;
76094;SDS011;64821;13.710;100.604;2024-03-08T00:53:50;14.52;;;10.85;;
76094;SDS011;64821;13.710;100.604;2024-03-08T00:54:54;15.65;;;12.23;;
76094;SDS011;64821;13.710;100.604;2024-03-08T00:55:58;17.10;;;12.00;;
76094;SDS011;64821;13.710;100.604;2024-03-08T00:57:02;15.32;;;11.50;;
76094;SDS011;64821;13.710;100.604;2024-03-08T00:58:07;14.48;;;11.73;;
76094;SDS011;64821;13.710;100.604;2024-03-08T00:59:12;17.50;;;12.32;;
76094;SDS011;64821;13.710;100.604;2024-03-08T01:00:16;14.95;;;11.98;;
76094;SDS011;64821;13.710;100.604;2024-03-08T01:01:21;16.57;;;12.73;;
76094;SDS011;64821;13.710;100.604;2024-03-08T01:02:26;15.32;;;12.02;;
76094;SDS011;64821;13.710;100.604;2024-03-08T01:03:30;14.73;;;11.82;;
76094;SDS011;64821;13.710;100.604;2024-03-08T01:04:36;14.82;;;11.20;;
76094;SDS011;64821;13.710;100.604;2024-03-08T01:05:40;15.05;;;11.27;;
76094;SDS011;64821;13.710;100.604;2024-03-08T01:06:44;16.20;;;12.03;;
76094;SDS011;64821;13.710;100.604;2024-03-08T01:07:48;17.25;;;12.20;;
76094;SDS011;64821;13.710;100.604;2024-03-08T01:08:52;15.15;;;11.45;;
76094;SDS011;64821;13.710;100.604;2024-03-08T01:09:57;13.63;;;10.85;;
76094;SDS011;64821;13.710;100.604;2024-03-08T01:11:01;13.98;;;11.23;;
76094;SDS011;64821;13.710;100.604;2024-03-08T01:12:06;14.37;;;11.20;;
76094;SDS011;64821;13.710;100.604;2024-03-08T01:13:10;15.25;;;11.57;;
76094;SDS011;64821;13.710;100.604;2024-03-08T01:14:14;13.85;;;10.93;;
76094;SDS011;64821;13.710;100.604;2024-03-08T01:15:19;15.00;;;11.65;;
76094;SDS011;64821;13.710;100.604;2024-03-08T01:16:23;15.45;;;11.07;;
76094;SDS011;64821;13.710;100.604;2024-03-08T01:17:27;13.43;;;10.93;;
76094;SDS011;64821;13.710;100.604;2024-03-08T01:18:31;14.15;;;11.00;;
76094;SDS011;64821;13.710;100.604;2024-03-08T01:19:37;15.93;;;11.02;;
76094;SDS011;64821;13.710;100.604;2024-03-08T01:20:42;15.43;;;11.73;;
76094;SDS011;64821;13.710;100.604;2024-03-08T01:21:46;14.27;;;11.05;;
76094;SDS011;64821;13.710;100.604;2024-03-08T01:22:50;15.73;;;11.57;;
76094;SDS011;64821;13.710;100.604;2024-03-08T01:23:54;17.58;;;12.88;;
76094;SDS011;64821;13.710;100.604;2024-03-08T01:24:58;17.40;;;12.45;;
76094;SDS011;64821;13.710;100.604;2024-03-08T01:26:03;16.33;;;11.90;;
76094;SDS011;64821;13.710;100.604;2024-03-08T01:27:07;13.43;;;11.07;;
76094;SDS011;64821;13.710;100.604;2024-03-08T01:28:11;15.47;;;11.50;;
76094;SDS011;64821;13.710;100.604;2024-03-08T01:29:15;14.25;;;11.57;;
76094;SDS011;64821;13.710;100.604;2024-03-08T01:30:20;15.20;;;11.43;;
76094;SDS011;64821;13.710;100.604;2024-03-08T01:31:24;16.05;;;12.02;;
76094;SDS011;64821;13.710;100.604;2024-03-08T01:32:28;14.52;;;11.95;;
76094;SDS011;64821;13.710;100.604;2024-03-08T01:33:33;14.93;;;11.57;;
76094;SDS011;64821;13.710;100.604;2024-03-08T01:34:39;17.33;;;12.93;;
76094;SDS011;64821;13.710;100.604;2024-03-08T01:35:43;18.17;;;12.40;;
76094;SDS011;64821;13.710;100.604;2024-03-08T01:36:47;15.50;;;12.23;;
76094;SDS011;64821;13.710;100.604;2024-03-08T01:37:52;16.08;;;12.35;;
76094;SDS011;64821;13.710;100.604;2024-03-08T01:38:56;14.47;;;11.43;;
76094;SDS011;64821;13.710;100.604;2024-03-08T01:40:00;13.63;;;11.55;;
76094;SDS011;64821;13.710;100.604;2024-03-08T01:41:04;16.38;;;11.90;;
76094;SDS011;64821;13.710;100.604;2024-03-08T01:42:09;15.50;;;12.43;;
76094;SDS011;64821;13.710;100.604;2024-03-08T01:43:17;17.15;;;13.40;;
76094;SDS011;64821;13.710;100.604;2024-03-08T01:44:22;16.77;;;12.43;;
76094;SDS011;64821;13.710;100.604;2024-03-08T01:45:26;17.23;;;13.70;;
76094;SDS011;64821;13.710;100.604;2024-03-08T01:46:30;17.25;;;12.38;;
76094;SDS011;64821;13.710;100.604;2024-03-08T01:47:35;15.15;;;11.85;;
76094;SDS011;64821;13.710;100.604;2024-03-08T01:48:40;16.95;;;12.18;;
76094;SDS011;64821;13.710;100.604;2024-03-08T01:49:47;16.43;;;13.47;;
76094;SDS011;64821;13.710;100.604;2024-03-08T01:50:51;15.70;;;11.85;;
76094;SDS011;64821;13.710;100.604;2024-03-08T01:51:57;15.02;;;12.27;;
76094;SDS011;64821;13.710;100.604;2024-03-08T01:53:01;15.88;;;12.05;;
76094;SDS011;64821;13.710;100.604;2024-03-08T01:54:06;17.48;;;13.13;;
76094;SDS011;64821;13.710;100.604;2024-03-08T01:55:12;15.83;;;12.87;;
76094;SDS011;64821;13.710;100.604;2024-03-08T01:56:16;16.42;;;13.10;;
76094;SDS011;64821;13.710;100.604;2024-03-08T01:57:21;16.70;;;12.85;;
76094;SDS011;64821;13.710;100.604;2024-03-08T01:58:26;16.13;;;13.10;;
76094;SDS011;64821;13.710;100.604;2024-03-08T01:59:32;17.92;;;14.00;;
76094;SDS011;64821;13.710;100.604;2024-03-08T02:00:36;16.67;;;13.03;;
76094;SDS011;64821;13.710;100.604;2024-03-08T02:01:43;14.50;;;11.68;;
76094;SDS011;64821;13.710;100.604;2024-03-08T02:02:47;15.55;;;13.00;;
76094;SDS011;64821;13.710;100.604;2024-03-08T02:03:53;15.18;;;12.30;;
76094;SDS011;64821;13.710;100.604;2024-03-08T02:04:59;17.25;;;13.82;;
76094;SDS011;64821;13.710;100.604;2024-03-08T02:06:04;16.67;;;13.03;;
76094;SDS011;64821;13.710;100.604;2024-03-08T02:07:08;16.02;;;13.25;;
76094;SDS011;64821;13.710;100.604;2024-03-08T02:08:13;17.83;;;14.25;;
76094;SDS011;64821;13.710;100.604;2024-03-08T02:09:17;19.25;;;13.55;;
76094;SDS011;64821;13.710;100.604;2024-03-08T02:10:21;19.73;;;14.57;;
76094;SDS011;64821;13.710;100.604;2024-03-08T02:11:25;16.37;;;13.37;;
76094;SDS011;64821;13.710;100.604;2024-03-08T02:12:30;16.45;;;12.73;;
76094;SDS011;64821;13.710;100.604;2024-03-08T02:13:34;16.70;;;13.45;;
76094;SDS011;64821;13.710;100.604;2024-03-08T02:14:38;15.95;;;12.75;;
76094;SDS011;64821;13.710;100.604;2024-03-08T02:15:52;17.38;;;12.80;;
76094;SDS011;64821;13.710;100.604;2024-03-08T02:17:00;18.07;;;13.93;;
76094;SDS011;64821;13.710;100.604;2024-03-08T02:18:04;16.98;;;13.85;;
76094;SDS011;64821;13.710;100.604;2024-03-08T02:19:08;17.63;;;14.10;;
76094;SDS011;64821;13.710;100.604;2024-03-08T02:20:14;16.80;;;14.05;;
76094;SDS011;64821;13.710;100.604;2024-03-08T02:21:20;17.30;;;14.38;;
76094;SDS011;64821;13.710;100.604;2024-03-08T02:22:24;17.30;;;13.63;;
76094;SDS011;64821;13.710;100.604;2024-03-08T02:23:29;16.98;;;13.55;;
76094;SDS011;64821;13.710;100.604;2024-03-08T02:24:33;16.55;;;13.43;;
76094;SDS011;64821;13.710;100.604;2024-03-08T02:25:38;16.88;;;13.13;;
76094;SDS011;64821;13.710;100.604;2024-03-08T02:26:42;16.27;;;12.90;;
76094;SDS011;64821;13.710;100.604;2024-03-08T02:27:46;16.17;;;12.70;;
76094;SDS011;64821;13.710;100.604;2024-03-08T02:28:50;16.48;;;13.23;;
76094;SDS011;64821;13.710;100.604;2024-03-08T02:29:55;15.75;;;12.90;;
76094;SDS011;64821;13.710;100.604;2024-03-08T02:30:59;15.82;;;12.95;;
76094;SDS011;64821;13.710;100.604;2024-03-08T02:32:03;17.65;;;14.27;;
76094;SDS011;64821;13.710;100.604;2024-03-08T02:33:08;16.20;;;13.40;;
76094;SDS011;64821;13.710;100.604;2024-03-08T02:34:12;17.58;;;14.68;;
76094;SDS011;64821;13.710;100.604;2024-03-08T02:35:16;16.63;;;13.13;;
76094;SDS011;64821;13.710;100.604;2024-03-08T02:36:22;15.52;;;12.50;;
76094;SDS011;64821;13.710;100.604;2024-03-08T02:37:26;18.35;;;14.02;;
76094;SDS011;64821;13.710;100.604;2024-03-08T02:38:30;15.60;;;12.97;;
76094;SDS011;64821;13.710;100.604;2024-03-08T02:39:35;17.48;;;12.90;;
76094;SDS011;64821;13.710;100.604;2024-03-08T02:40:39;16.40;;;13.18;;
76094;SDS011;64821;13.710;100.604;2024-03-08T02:41:43;16.25;;;12.73;;
76094;SDS011;64821;13.710;100.604;2024-03-08T02:42:47;16.58;;;12.65;;
76094;SDS011;64821;13.710;100.604;2024-03-08T02:43:52;19.33;;;14.10;;
76094;SDS011;64821;13.710;100.604;2024-03-08T02:44:56;18.55;;;14.23;;
76094;SDS011;64821;13.710;100.604;2024-03-08T02:46:00;15.88;;;12.15;;
76094;SDS011;64821;13.710;100.604;2024-03-08T02:47:04;15.52;;;12.88;;
76094;SDS011;64821;13.710;100.604;2024-03-08T02:48:09;16.33;;;12.98;;
76094;SDS011;64821;13.710;100.604;2024-03-08T02:49:14;18.37;;;13.83;;
76094;SDS011;64821;13.710;100.604;2024-03-08T02:50:18;17.52;;;13.93;;
76094;SDS011;64821;13.710;100.604;2024-03-08T02:51:24;19.33;;;15.02;;
76094;SDS011;64821;13.710;100.604;2024-03-08T02:52:28;16.60;;;13.15;;
76094;SDS011;64821;13.710;100.604;2024-03-08T02:53:32;17.25;;;13.82;;
76094;SDS011;64821;13.710;100.604;2024-03-08T02:54:37;17.20;;;13.63;;
76094;SDS011;64821;13.710;100.604;2024-03-08T02:55:41;16.50;;;12.95;;
76094;SDS011;64821;13.710;100.604;2024-03-08T02:56:45;19.05;;;14.13;;
76094;SDS011;64821;13.710;100.604;2024-03-08T02:57:49;17.42;;;14.55;;
76094;SDS011;64821;13.710;100.604;2024-03-08T02:58:53;17.58;;;14.75;;
76094;SDS011;64821;13.710;100.604;2024-03-08T02:59:57;18.33;;;15.43;;
76094;SDS011;64821;13.710;100.604;2024-03-08T03:01:02;17.52;;;14.05;;
76094;SDS011;64821;13.710;100.604;2024-03-08T03:02:06;17.45;;;13.52;;
76094;SDS011;64821;13.710;100.604;2024-03-08T03:03:10;17.70;;;14.00;;
76094;SDS011;64821;13.710;100.604;2024-03-08T03:04:15;15.55;;;13.05;;
76094;SDS011;64821;13.710;100.604;2024-03-08T03:05:19;16.80;;;13.10;;
76094;SDS011;64821;13.710;100.604;2024-03-08T03:06:25;19.38;;;14.00;;
76094;SDS011;64821;13.710;100.604;2024-03-08T03:07:29;17.55;;;13.75;;
76094;SDS011;64821;13.710;100.604;2024-03-08T03:08:33;17.27;;;13.70;;
76094;SDS011;64821;13.710;100.604;2024-03-08T03:09:38;16.63;;;13.50;;
76094;SDS011;64821;13.710;100.604;2024-03-08T03:10:42;17.17;;;13.90;;
76094;SDS011;64821;13.710;100.604;2024-03-08T03:11:46;16.80;;;13.05;;
76094;SDS011;64821;13.710;100.604;2024-03-08T03:12:50;17.35;;;13.38;;
76094;SDS011;64821;13.710;100.604;2024-03-08T03:13:54;17.92;;;12.93;;
76094;SDS011;64821;13.710;100.604;2024-03-08T03:14:59;17.17;;;13.68;;
76094;SDS011;64821;13.710;100.604;2024-03-08T03:16:03;18.03;;;13.73;;
76094;SDS011;64821;13.710;100.604;2024-03-08T03:17:08;15.35;;;12.70;;
76094;SDS011;64821;13.710;100.604;2024-03-08T03:18:12;15.65;;;12.63;;
76094;SDS011;64821;13.710;100.604;2024-03-08T03:19:16;15.57;;;12.75;;
76094;SDS011;64821;13.710;100.604;2024-03-08T03:20:20;16.75;;;13.43;;
76094;SDS011;64821;13.710;100.604;2024-03-08T03:21:27;17.23;;;12.03;;
76094;SDS011;64821;13.710;100.604;2024-03-08T03:22:31;15.43;;;12.32;;
76094;SDS011;64821;13.710;100.604;2024-03-08T03:23:36;18.13;;;12.40;;
76094;SDS011;64821;13.710;100.604;2024-03-08T03:24:40;15.60;;;12.73;;
76094;SDS011;64821;13.710;100.604;2024-03-08T03:25:44;16.75;;;13.45;;
76094;SDS011;64821;13.710;100.604;2024-03-08T03:26:49;16.60;;;13.13;;
76094;SDS011;64821;13.710;100.604;2024-03-08T03:27:53;17.85;;;13.60;;
76094;SDS011;64821;13.710;100.604;2024-03-08T03:28:57;18.70;;;14.52;;
76094;SDS011;64821;13.710;100.604;2024-03-08T03:30:02;17.10;;;13.60;;
76094;SDS011;64821;13.710;100.604;2024-03-08T03:31:06;17.80;;;13.25;;
76094;SDS011;64821;13.710;100.604;2024-03-08T03:32:11;16.03;;;13.57;;
76094;SDS011;64821;13.710;100.604;2024-03-08T03:33:15;17.58;;;14.35;;
76094;SDS011;64821;13.710;100.604;2024-03-08T03:34:20;17.60;;;13.68;;
76094;SDS011;64821;13.710;100.604;2024-03-08T03:35:24;15.95;;;13.10;;
76094;SDS011;64821;13.710;100.604;2024-03-08T03:36:30;15.80;;;13.35;;
76094;SDS011;64821;13.710;100.604;2024-03-08T03:37:34;17.13;;;13.07;;
76094;SDS011;64821;13.710;100.604;2024-03-08T03:38:39;15.35;;;12.57;;
76094;SDS011;64821;13.710;100.604;2024-03-08T03:39:43;18.55;;;13.57;;
76094;SDS011;64821;13.710;100.604;2024-03-08T03:40:47;16.42;;;13.02;;
76094;SDS011;64821;13.710;100.604;2024-03-08T03:41:51;18.95;;;14.23;;
76094;SDS011;64821;13.710;100.604;2024-03-08T03:42:55;18.17;;;13.83;;
76094;SDS011;64821;13.710;100.604;2024-03-08T03:44:00;17.40;;;13.95;;
76094;SDS011;64821;13.710;100.604;2024-03-08T03:45:04;16.63;;;13.40;;
76094;SDS011;64821;13.710;100.604;2024-03-08T03:46:09;17.70;;;15.27;;
76094;SDS011;64821;13.710;100.604;2024-03-08T03:47:13;19.77;;;15.18;;
76094;SDS011;64821;13.710;100.604;2024-03-08T03:48:18;16.90;;;13.43;;
76094;SDS011;64821;13.710;100.604;2024-03-08T03:49:22;16.27;;;13.90;;
76094;SDS011;64821;13.710;100.604;2024-03-08T03:50:26;16.65;;;13.95;;
76094;SDS011;64821;13.710;100.604;2024-03-08T03:51:32;19.65;;;15.23;;
76094;SDS011;64821;13.710;100.604;2024-03-08T03:52:36;17.13;;;14.73;;
76094;SDS011;64821;13.710;100.604;2024-03-08T03:53:41;16.47;;;14.27;;
76094;SDS011;64821;13.710;100.604;2024-03-08T03:54:45;19.85;;;14.60;;
76094;SDS011;64821;13.710;100.604;2024-03-08T03:55:49;16.83;;;13.93;;
76094;SDS011;64821;13.710;100.604;2024-03-08T03:56:53;16.45;;;13.88;;
76094;SDS011;64821;13.710;100.604;2024-03-08T03:57:57;18.50;;;14.48;;
76094;SDS011;64821;13.710;100.604;2024-03-08T03:59:02;19.40;;;13.50;;
76094;SDS011;64821;13.710;100.604;2024-03-08T04:00:06;16.45;;;13.10;;
76094;SDS011;64821;13.710;100.604;2024-03-08T04:01:11;16.95;;;13.90;;
76094;SDS011;64821;13.710;100.604;2024-03-08T20:01:33;13.73;;;10.02;;
76094;SDS011;64821;13.710;100.604;2024-03-08T20:02:37;12.97;;;9.80;;
76094;SDS011;64821;13.710;100.604;2024-03-08T20:03:41;15.30;;;11.02;;
76094;SDS011;64821;13.710;100.604;2024-03-08T20:04:45;14.32;;;10.43;;
76094;SDS011;64821;13.710;100.604;2024-03-08T20:05:50;14.93;;;10.32;;
76094;SDS011;64821;13.710;100.604;2024-03-08T20:06:54;14.55;;;10.90;;
76094;SDS011;64821;13.710;100.604;2024-03-08T20:07:58;17.10;;;11.80;;
76094;SDS011;64821;13.710;100.604;2024-03-08T20:09:03;13.93;;;10.60;;
76094;SDS011;64821;13.710;100.604;2024-03-08T20:10:07;15.70;;;11.27;;
76094;SDS011;64821;13.710;100.604;2024-03-08T20:11:12;16.92;;;12.50;;
76094;SDS011;64821;13.710;100.604;2024-03-08T20:12:16;14.55;;;10.73;;
76094;SDS011;64821;13.710;100.604;2024-03-08T20:13:20;15.10;;;11.07;;
76094;SDS011;64821;13.710;100.604;2024-03-08T20:14:25;14.73;;;10.25;;
76094;SDS011;64821;13.710;100.604;2024-03-08T20:15:29;17.27;;;12.05;;
76094;SDS011;64821;13.710;100.604;2024-03-08T20:16:35;16.25;;;12.70;;
76094;SDS011;64821;13.710;100.604;2024-03-08T20:17:39;13.52;;;10.80;;
76094;SDS011;64821;13.710;100.604;2024-03-08T20:18:44;13.63;;;10.40;;
76094;SDS011;64821;13.710;100.604;2024-03-08T20:19:50;13.68;;;10.60;;
76094;SDS011;64821;13.710;100.604;2024-03-08T20:20:54;16.45;;;11.88;;
76094;SDS011;64821;13.710;100.604;2024-03-08T20:21:58;15.57;;;11.73;;
76094;SDS011;64821;13.710;100.604;2024-03-08T20:23:03;15.10;;;11.85;;
76094;SDS011;64821;13.710;100.604;2024-03-08T20:24:07;14.90;;;11.40;;
76094;SDS011;64821;13.710;100.604;2024-03-08T20:25:13;16.50;;;12.30;;
76094;SDS011;64821;13.710;100.604;2024-03-08T20:26:18;15.50;;;12.10;;
76094;SDS011;64821;13.710;100.604;2024-03-08T20:27:22;16.30;;;12.60;;
76094;SDS011;64821;13.710;100.604;2024-03-08T20:28:26;14.82;;;11.88;;
76094;SDS011;64821;13.710;100.604;2024-03-08T20:29:30;15.00;;;11.60;;
76094;SDS011;64821;13.710;100.604;2024-03-08T20:30:34;15.00;;;11.98;;
76094;SDS011;64821;13.710;100.604;2024-03-08T20:31:41;17.02;;;13.48;;
76094;SDS011;64821;13.710;100.604;2024-03-08T20:32:45;15.32;;;11.70;;
76094;SDS011;64821;13.710;100.604;2024-03-08T20:33:49;14.75;;;11.77;;
76094;SDS011;64821;13.710;100.604;2024-03-08T20:34:53;15.63;;;12.13;;
76094;SDS011;64821;13.710;100.604;2024-03-08T20:35:58;14.68;;;11.35;;
76094;SDS011;64821;13.710;100.604;2024-03-08T20:37:02;14.95;;;11.50;;
76094;SDS011;64821;13.710;100.604;2024-03-08T20:38:06;15.13;;;12.40;;
76094;SDS011;64821;13.710;100.604;2024-03-08T20:39:10;17.58;;;12.43;;
76094;SDS011;64821;13.710;100.604;2024-03-08T20:40:14;17.63;;;12.90;;
76094;SDS011;64821;13.710;100.604;2024-03-08T20:41:19;16.00;;;11.80;;
76094;SDS011;64821;13.710;100.604;2024-03-08T20:42:23;15.45;;;12.02;;
76094;SDS011;64821;13.710;100.604;2024-03-08T20:43:27;14.18;;;11.25;;
76094;SDS011;64821;13.710;100.604;2024-03-08T20:44:31;16.77;;;12.98;;
76094;SDS011;64821;13.710;100.604;2024-03-08T20:45:35;15.57;;;12.20;;
76094;SDS011;64821;13.710;100.604;2024-03-08T20:46:41;14.88;;;11.77;;
76094;SDS011;64821;13.710;100.604;2024-03-08T20:47:46;18.17;;;13.18;;
76094;SDS011;64821;13.710;100.604;2024-03-08T20:48:50;16.02;;;12.35;;
76094;SDS011;64821;13.710;100.604;2024-03-08T20:49:55;15.40;;;12.05;;
76094;SDS011;64821;13.710;100.604;2024-03-08T20:50:59;14.70;;;11.40;;
76094;SDS011;64821;13.710;100.604;2024-03-08T20:52:03;17.25;;;12.88;;
76094;SDS011;64821;13.710;100.604;2024-03-08T20:53:08;17.35;;;13.32;;
76094;SDS011;64821;13.710;100.604;2024-03-08T20:54:12;16.88;;;12.95;;
76094;SDS011;64821;13.710;100.604;2024-03-08T20:55:16;17.15;;;12.60;;
76094;SDS011;64821;13.710;100.604;2024-03-08T20:56:21;15.70;;;11.80;;
76094;SDS011;64821;13.710;100.604;2024-03-08T20:57:25;17.65;;;12.15;;
76094;SDS011;64821;13.710;100.604;2024-03-08T20:58:29;15.75;;;12.05;;
76094;SDS011;64821;13.710;100.604;2024-03-08T20:59:33;13.90;;;11.30;;
76094;SDS011;64821;13.710;100.604;2024-03-08T21:00:37;16.10;;;12.52;;
76094;SDS011;64821;13.710;100.604;2024-03-08T21:01:45;14.90;;;11.50;;
76094;SDS011;64821;13.710;100.604;2024-03-08T21:02:49;15.77;;;11.38;;
76094;SDS011;64821;13.710;100.604;2024-03-08T21:03:53;16.10;;;12.68;;
76094;SDS011;64821;13.710;100.604;2024-03-08T21:04:57;16.27;;;12.38;;
76094;SDS011;64821;13.710;100.604;2024-03-08T21:06:02;15.82;;;12.07;;
76094;SDS011;64821;13.710;100.604;2024-03-08T21:07:06;14.80;;;11.63;;
76094;SDS011;64821;13.710;100.604;2024-03-08T21:08:10;16.05;;;11.98;;
76094;SDS011;64821;13.710;100.604;2024-03-08T21:09:15;15.93;;;12.65;;
76094;SDS011;64821;13.710;100.604;2024-03-08T21:10:20;15.10;;;11.57;;
76094;SDS011;64821;13.710;100.604;2024-03-08T21:11:24;15.82;;;12.52;;
76094;SDS011;64821;13.710;100.604;2024-03-08T21:12:29;15.90;;;11.23;;
76094;SDS011;64821;13.710;100.604;2024-03-08T21:13:35;15.82;;;12.35;;
76094;SDS011;64821;13.710;100.604;2024-03-08T21:14:40;15.63;;;11.98;;
76094;SDS011;64821;13.710;100.604;2024-03-08T21:15:44;14.77;;;11.43;;
76094;SDS011;64821;13.710;100.604;2024-03-08T21:16:50;15.63;;;11.43;;
76094;SDS011;64821;13.710;100.604;2024-03-08T21:17:55;17.17;;;12.53;;
76094;SDS011;64821;13.710;100.604;2024-03-08T21:18:59;16.85;;;11.98;;
76094;SDS011;64821;13.710;100.604;2024-03-08T21:20:03;15.20;;;11.02;;
76094;SDS011;64821;13.710;100.604;2024-03-08T21:21:08;17.40;;;12.20;;
76094;SDS011;64821;13.710;100.604;2024-03-08T21:22:12;15.57;;;11.57;;
76094;SDS011;64821;13.710;100.604;2024-03-08T21:23:16;16.83;;;12.80;;
76094;SDS011;64821;13.710;100.604;2024-03-08T21:24:21;15.40;;;11.70;;
76094;SDS011;64821;13.710;100.604;2024-03-08T21:25:25;15.57;;;11.80;;
76094;SDS011;64821;13.710;100.604;2024-03-08T21:26:29;15.85;;;11.75;;
76094;SDS011;64821;13.710;100.604;2024-03-08T21:27:33;14.30;;;10.90;;
76094;SDS011;64821;13.710;100.604;2024-03-08T21:28:38;17.03;;;12.37;;
76094;SDS011;64821;13.710;100.604;2024-03-08T21:29:42;16.45;;;12.15;;
76094;SDS011;64821;13.710;100.604;2024-03-08T21:30:46;17.02;;;12.70;;
76094;SDS011;64821;13.710;100.604;2024-03-08T21:31:53;17.92;;;12.50;;
76094;SDS011;64821;13.710;100.604;2024-03-08T21:32:57;15.90;;;11.45;;
76094;SDS011;64821;13.710;100.604;2024-03-08T21:34:02;17.70;;;12.50;;
76094;SDS011;64821;13.710;100.604;2024-03-08T21:35:06;16.83;;;11.73;;
76094;SDS011;64821;13.710;100.604;2024-03-08T21:36:11;16.23;;;11.80;;
76094;SDS011;64821;13.710;100.604;2024-03-08T21:37:15;15.68;;;12.13;;
76094;SDS011;64821;13.710;100.604;2024-03-08T21:38:19;17.85;;;13.30;;
76094;SDS011;64821;13.710;100.604;2024-03-08T21:39:26;16.10;;;11.93;;
76094;SDS011;64821;13.710;100.604;2024-03-08T21:40:30;16.85;;;11.90;;
76094;SDS011;64821;13.710;100.604;2024-03-08T21:41:34;16.50;;;12.48;;
76094;SDS011;64821;13.710;100.604;2024-03-08T21:42:39;16.75;;;12.35;;
76094;SDS011;64821;13.710;100.604;2024-03-08T21:43:43;17.10;;;12.23;;
76094;SDS011;64821;13.710;100.604;2024-03-08T21:44:47;16.13;;;12.97;;
76094;SDS011;64821;13.710;100.604;2024-03-08T21:45:51;15.05;;;10.88;;
76094;SDS011;64821;13.710;100.604;2024-03-08T21:46:57;17.27;;;12.95;;
76094;SDS011;64821;13.710;100.604;2024-03-08T21:48:01;15.20;;;11.52;;
76094;SDS011;64821;13.710;100.604;2024-03-08T21:49:06;15.57;;;11.40;;
76094;SDS011;64821;13.710;100.604;2024-03-08T21:50:10;15.77;;;12.00;;
76094;SDS011;64821;13.710;100.604;2024-03-08T21:51:15;16.58;;;12.13;;
76094;SDS011;64821;13.710;100.604;2024-03-08T21:52:19;15.98;;;12.63;;
76094;SDS011;64821;13.710;100.604;2024-03-08T21:53:23;15.32;;;10.95;;
76094;SDS011;64821;13.710;100.604;2024-03-08T21:54:36;15.10;;;11.70;;
76094;SDS011;64821;13.710;100.604;2024-03-08T21:55:42;17.53;;;11.77;;
76094;SDS011;64821;13.710;100.604;2024-03-08T21:56:46;15.98;;;12.20;;
76094;SDS011;64821;13.710;100.604;2024-03-08T21:57:50;17.33;;;12.25;;
76094;SDS011;64821;13.710;100.604;2024-03-08T21:58:54;16.35;;;11.75;;
76094;SDS011;64821;13.710;100.604;2024-03-08T21:59:58;17.48;;;12.05;;
76094;SDS011;64821;13.710;100.604;2024-03-08T22:01:03;14.30;;;10.93;;
76094;SDS011;64821;13.710;100.604;2024-03-08T22:02:09;15.23;;;11.48;;
76094;SDS011;64821;13.710;100.604;2024-03-08T22:03:13;16.30;;;12.05;;
76094;SDS011;64821;13.710;100.604;2024-03-08T22:04:17;14.80;;;11.43;;
76094;SDS011;64821;13.710;100.604;2024-03-08T22:05:22;14.70;;;11.25;;